createdAt,value
2019-05-14T00:01:31.768Z,97853.19
2019-05-14T00:04:02.275Z,97853.20
2019-05-14T00:06:33.105Z,97851.30
2019-05-14T00:09:04.491Z,97852.09
2019-05-14T00:11:35.153Z,97848.62
2019-05-14T00:14:06.691Z,97849.48
2019-05-14T00:16:37.379Z,97842.91
2019-05-14T00:19:08.011Z,97843.50
2019-05-14T00:21:38.650Z,97838.55
2019-05-14T00:24:11.285Z,97835.27
2019-05-14T00:26:42.657Z,97836.24
2019-05-14T00:29:14.168Z,97828.64
2019-05-14T00:31:46.519Z,97839.91
2019-05-14T00:34:16.980Z,97827.48
2019-05-14T00:36:47.731Z,97823.81
2019-05-14T00:39:18.394Z,97821.53
2019-05-14T00:41:51.262Z,97819.78
2019-05-14T00:44:22.796Z,97818.00
2019-05-14T00:46:53.315Z,97814.84
2019-05-14T00:49:23.910Z,97815.28
2019-05-14T00:51:55.345Z,97815.48
2019-05-14T00:54:25.819Z,97815.22
2019-05-14T00:56:57.113Z,97815.39
2019-05-14T00:59:27.581Z,97820.16
2019-05-14T01:01:58.868Z,97805.67
2019-05-14T01:04:31.666Z,97813.41
2019-05-14T01:07:02.689Z,97816.84
2019-05-14T01:09:34.096Z,97811.05
2019-05-14T01:12:04.661Z,97805.13
2019-05-14T01:14:35.260Z,97798.52
2019-05-14T01:17:06.676Z,97800.73
2019-05-14T01:19:37.116Z,97801.52
2019-05-14T01:22:09.299Z,97799.38
2019-05-14T01:24:41.633Z,97798.11
2019-05-14T01:27:12.625Z,97804.74
2019-05-14T01:29:43.818Z,97800.03
2019-05-14T01:32:14.239Z,97800.48
2019-05-14T01:34:44.782Z,97789.84
2019-05-14T01:37:15.241Z,97793.02
2019-05-14T01:39:45.759Z,97786.42
2019-05-14T01:42:17.020Z,97787.72
2019-05-14T01:44:47.392Z,97785.44
2019-05-14T01:47:18.700Z,97780.73
2019-05-14T01:49:51.511Z,97778.84
2019-05-14T01:52:22.177Z,97771.29
2019-05-14T01:54:52.761Z,97768.69
2019-05-14T01:57:23.257Z,97776.98
2019-05-14T01:59:53.722Z,97769.72
2019-05-14T02:02:25.182Z,97766.17
2019-05-14T02:04:55.881Z,97760.87
2019-05-14T02:07:26.401Z,97756.52
2019-05-14T02:09:56.955Z,97761.52
2019-05-14T02:12:27.435Z,97755.02
2019-05-14T02:14:59.011Z,97751.23
2019-05-14T02:17:31.802Z,97753.53
2019-05-14T02:20:03.126Z,97755.10
2019-05-14T02:22:33.703Z,97750.52
2019-05-14T02:25:04.431Z,97751.84
2019-05-14T02:27:37.483Z,97751.84
2019-05-14T02:30:08.839Z,97747.84
2019-05-14T02:32:40.945Z,97747.70
2019-05-14T02:35:12.987Z,97749.27
2019-05-14T02:37:43.550Z,97745.75
2019-05-14T02:40:15.712Z,97746.23
2019-05-14T02:42:49.434Z,97747.47
2019-05-14T02:45:20.027Z,97744.52
2019-05-14T02:47:50.736Z,97730.91
2019-05-14T02:50:21.367Z,97735.88
2019-05-14T02:52:51.945Z,97736.47
2019-05-14T02:55:23.454Z,97732.34
2019-05-14T02:57:54.053Z,97736.11
2019-05-14T03:00:24.657Z,97740.52
2019-05-14T03:02:55.254Z,97739.70
2019-05-14T03:05:25.882Z,97733.33
2019-05-14T03:07:59.910Z,97734.77
2019-05-14T03:10:30.797Z,97728.36
2019-05-14T03:13:01.252Z,97733.78
2019-05-14T03:15:31.778Z,97719.75
2019-05-14T03:18:02.415Z,97723.44
2019-05-14T03:20:33.235Z,97718.72
2019-05-14T03:23:09.038Z,97723.94
2019-05-14T03:25:36.363Z,97709.64
2019-05-14T03:28:09.292Z,97717.55
2019-05-14T03:30:42.357Z,97712.34
2019-05-14T03:33:13.190Z,97712.31
2019-05-14T03:35:50.087Z,97716.56
2019-05-14T03:38:15.487Z,97716.70
2019-05-14T03:40:49.132Z,97715.05
2019-05-14T03:43:19.814Z,97713.75
2019-05-14T03:45:50.103Z,97708.42
2019-05-14T03:48:20.405Z,97707.59
2019-05-14T03:50:50.873Z,97702.75
2019-05-14T03:53:21.409Z,97706.43
2019-05-14T03:55:51.878Z,97707.96
2019-05-14T03:58:22.379Z,97709.72
2019-05-14T04:01:00.908Z,97709.85
2019-05-14T04:03:32.911Z,97707.70
2019-05-14T04:06:04.087Z,97709.56
2019-05-14T04:08:38.959Z,97700.59
2019-05-14T04:11:10.105Z,97710.60
2019-05-14T04:13:42.588Z,97698.98
2019-05-14T04:16:15.408Z,97700.82
2019-05-14T04:18:50.441Z,97704.58
2019-05-14T04:21:22.732Z,97699.86
2019-05-14T04:23:53.996Z,97696.60
2019-05-14T04:26:24.597Z,97688.88
2019-05-14T04:29:00.209Z,97690.73
2019-05-14T04:31:32.444Z,97690.94
2019-05-14T04:34:05.539Z,97687.94
2019-05-14T04:36:39.030Z,97692.16
2019-05-14T04:39:09.665Z,97689.52
2019-05-14T04:41:40.286Z,97680.12
2019-05-14T04:44:11.171Z,97680.91
2019-05-14T04:46:41.744Z,97687.17
2019-05-14T04:49:12.263Z,97685.05
2019-05-14T04:51:42.703Z,97690.64
2019-05-14T04:54:13.128Z,97687.94
2019-05-14T04:56:44.594Z,97696.38
2019-05-14T04:59:15.098Z,97690.38
2019-05-14T05:01:48.989Z,97693.41
2019-05-14T05:04:20.200Z,97693.66
2019-05-14T05:06:50.247Z,97696.18
2019-05-14T05:09:21.002Z,97692.81
2019-05-14T05:11:51.834Z,97693.93
2019-05-14T05:14:23.896Z,97689.76
2019-05-14T05:16:54.760Z,97691.47
2019-05-14T05:19:25.434Z,97689.28
2019-05-14T05:21:58.548Z,97689.84
2019-05-14T05:24:28.921Z,97686.68
2019-05-14T05:26:59.650Z,97685.12
2019-05-14T05:29:30.205Z,97679.69
2019-05-14T05:32:00.920Z,97688.47
2019-05-14T05:34:31.486Z,97683.86
2019-05-14T05:37:01.805Z,97681.39
2019-05-14T05:39:32.182Z,97690.38
2019-05-14T05:42:02.708Z,97691.59
2019-05-14T05:44:32.948Z,97687.84
2019-05-14T05:47:03.299Z,97691.97
2019-05-14T05:49:33.792Z,97694.41
2019-05-14T05:52:04.320Z,97688.61
2019-05-14T05:54:34.787Z,97696.81
2019-05-14T06:05:08.063Z,97687.53
2019-05-14T06:07:39.626Z,97687.43
2019-05-14T06:10:10.765Z,97679.84
2019-05-14T06:12:41.429Z,97671.61
2019-05-14T06:15:14.389Z,97674.42
2019-05-14T06:17:45.261Z,97664.31
2019-05-14T06:20:16.256Z,97655.25
2019-05-14T06:22:48.943Z,97659.19
2019-05-14T06:25:21.158Z,97658.98
2019-05-14T06:27:52.081Z,97658.83
2019-05-14T06:30:39.608Z,97664.20
2019-05-14T06:33:09.838Z,97661.98
2019-05-14T06:35:40.582Z,97661.45
2019-05-14T06:38:11.297Z,97649.97
2019-05-14T06:40:41.940Z,97650.16
2019-05-14T06:43:12.612Z,97652.16
2019-05-14T06:45:43.346Z,97650.72
2019-05-14T06:48:26.895Z,97654.73
2019-05-14T06:50:46.500Z,97651.45
2019-05-14T06:53:19.475Z,97648.88
2019-05-14T06:55:49.723Z,97661.52
2019-05-14T06:58:20.635Z,97662.34
2019-05-14T07:00:51.372Z,97657.09
2019-05-14T07:03:22.113Z,97658.72
2019-05-14T07:05:52.864Z,97651.79
2019-05-14T07:08:23.514Z,97653.37
2019-05-14T07:10:54.316Z,97651.05
2019-05-14T07:13:24.979Z,97646.99
2019-05-14T07:15:58.178Z,97642.16
2019-05-14T07:18:33.341Z,97644.03
2019-05-14T07:21:00.718Z,97636.33
2019-05-14T07:23:31.435Z,97636.04
2019-05-14T07:26:02.146Z,97639.70
2019-05-14T07:28:32.881Z,97638.45
2019-05-14T07:31:03.587Z,97631.28
2019-05-14T07:33:34.302Z,97634.55
2019-05-14T07:36:05.046Z,97630.56
2019-05-14T07:38:38.639Z,97631.61
2019-05-14T07:41:09.184Z,97630.14
2019-05-14T07:43:40.288Z,97636.91
2019-05-14T07:46:11.061Z,97631.69
2019-05-14T07:48:41.820Z,97633.85
2019-05-14T07:51:12.517Z,97633.39
2019-05-14T07:53:43.204Z,97648.31
2019-05-14T07:56:13.900Z,97638.26
2019-05-14T07:58:45.112Z,97643.93
2019-05-14T08:01:15.827Z,97641.95
2019-05-14T08:03:48.547Z,97639.30
2019-05-14T08:06:19.268Z,97637.63
2019-05-14T08:08:50.255Z,97635.67
2019-05-14T08:11:24.830Z,97639.88
2019-05-14T08:13:55.574Z,97645.06
2019-05-14T08:16:28.795Z,97645.25
2019-05-14T08:19:00.520Z,97642.55
2019-05-14T08:21:31.341Z,97637.34
2019-05-14T08:24:02.009Z,97635.94
2019-05-14T08:26:32.683Z,97637.45
2019-05-14T08:29:03.332Z,97629.73
2019-05-14T08:31:34.022Z,97632.17
2019-05-14T08:34:06.075Z,97627.88
2019-05-14T08:36:38.168Z,97624.33
2019-05-14T08:39:09.159Z,97629.55
2019-05-14T08:41:39.815Z,97629.05
2019-05-14T08:44:10.512Z,97627.17
2019-05-14T08:46:41.168Z,97615.57
2019-05-14T08:49:11.944Z,97623.44
2019-05-14T08:51:42.597Z,97618.87
2019-05-14T08:54:13.317Z,97617.23
2019-05-14T08:56:44.464Z,97625.48
2019-05-14T08:59:16.174Z,97620.45
2019-05-14T09:02:00.889Z,97621.94
2019-05-14T09:04:22.322Z,97612.11
2019-05-14T09:06:51.703Z,97608.91
2019-05-14T09:09:22.523Z,97605.59
2019-05-14T09:11:53.153Z,97612.88
2019-05-14T09:14:23.887Z,97606.11
2019-05-14T09:16:54.732Z,97603.46
2019-05-14T09:19:25.570Z,97594.98
2019-05-14T09:21:58.638Z,97595.30
2019-05-14T09:24:29.383Z,97586.97
2019-05-14T09:27:00.267Z,97583.59
2019-05-14T09:29:30.926Z,97570.87
2019-05-14T09:32:01.794Z,97569.05
2019-05-14T09:34:32.480Z,97581.80
2019-05-14T09:37:03.093Z,97580.13
2019-05-14T09:39:33.811Z,97570.58
2019-05-14T09:42:04.620Z,97557.08
2019-05-14T09:44:35.496Z,97567.34
2019-05-14T09:47:08.595Z,97562.60
2019-05-14T09:49:39.089Z,97559.92
2019-05-14T09:52:09.876Z,97556.19
2019-05-14T09:54:43.943Z,97553.66
2019-05-14T09:57:14.899Z,97566.31
2019-05-14T09:59:47.827Z,97552.14
2019-05-14T10:02:20.877Z,97545.69
2019-05-14T10:04:53.489Z,97545.09
2019-05-14T10:07:24.763Z,97537.17
2019-05-14T10:09:59.844Z,97538.13
2019-05-14T10:12:30.625Z,97544.39
2019-05-14T10:15:01.292Z,97544.19
2019-05-14T10:17:39.300Z,97551.20
2019-05-14T10:20:10.459Z,97543.30
2019-05-14T10:22:41.108Z,97547.23
2019-05-14T10:25:11.910Z,97539.73
2019-05-14T10:27:42.642Z,97531.53
2019-05-14T10:30:13.647Z,97526.18
2019-05-14T10:32:44.375Z,97526.81
2019-05-14T10:35:15.153Z,97518.98
2019-05-14T10:37:45.817Z,97521.17
2019-05-14T10:40:18.364Z,97526.05
2019-05-14T10:42:49.623Z,97541.84
2019-05-14T10:45:20.507Z,97530.98
2019-05-14T10:47:51.201Z,97520.36
2019-05-14T10:50:21.926Z,97514.89
2019-05-14T10:52:52.677Z,97514.33
2019-05-14T10:55:23.324Z,97510.22
2019-05-14T10:57:54.485Z,97501.63
2019-05-14T11:00:28.245Z,97497.75
2019-05-14T11:02:58.351Z,97490.81
2019-05-14T11:05:29.052Z,97475.69
2019-05-14T11:07:59.833Z,97467.78
2019-05-14T11:10:30.572Z,97464.91
2019-05-14T11:13:01.257Z,97460.68
2019-05-14T11:15:31.977Z,97467.09
2019-05-14T11:18:02.698Z,97460.78
2019-05-14T11:20:33.443Z,97447.06
2019-05-14T11:23:04.249Z,97445.38
2019-05-14T11:25:34.959Z,97458.03
2019-05-14T11:28:05.604Z,97444.97
2019-05-14T11:30:36.387Z,97440.45
2019-05-14T11:33:09.109Z,97432.91
2019-05-14T11:35:39.655Z,97437.00
2019-05-14T11:38:28.042Z,97428.83
2019-05-14T11:40:42.869Z,97440.12
2019-05-14T11:43:13.604Z,97437.49
2019-05-14T11:45:44.453Z,97433.07
2019-05-14T11:48:15.135Z,97456.09
2019-05-14T11:50:48.881Z,97468.52
2019-05-14T11:53:19.789Z,97458.28
2019-05-14T11:55:50.735Z,97455.37
2019-05-14T11:58:21.644Z,97446.70
2019-05-14T12:00:52.360Z,97439.71
2019-05-14T12:03:23.058Z,97427.53
2019-05-14T12:05:53.789Z,97430.98
2019-05-14T12:08:24.495Z,97428.05
2019-05-14T12:10:55.231Z,97415.78
2019-05-14T12:13:30.067Z,97404.08
2019-05-14T12:15:59.056Z,97408.15
2019-05-14T12:18:30.053Z,97403.19
2019-05-14T12:21:02.155Z,97399.08
2019-05-14T12:23:32.838Z,97393.52
2019-05-14T12:26:03.697Z,97389.19
2019-05-14T12:28:38.620Z,97394.98
2019-05-14T12:31:09.351Z,97387.88
2019-05-14T12:33:40.494Z,97397.91
2019-05-14T12:36:11.177Z,97398.61
2019-05-14T12:38:41.921Z,97377.25
2019-05-14T12:41:12.682Z,97367.00
2019-05-14T12:43:44.019Z,97383.47
2019-05-14T12:46:15.024Z,97369.16
2019-05-14T12:48:45.653Z,97381.61
2019-05-14T12:51:18.549Z,97369.87
2019-05-14T12:53:49.047Z,97375.34
2019-05-14T12:56:19.719Z,97389.74
2019-05-14T12:58:50.990Z,97400.18
2019-05-14T13:01:21.647Z,97381.20
2019-05-14T13:03:52.325Z,97379.69
2019-05-14T13:06:23.005Z,97369.05
2019-05-14T13:08:53.686Z,97361.59
2019-05-14T13:11:24.506Z,97356.49
2019-05-14T13:13:55.268Z,97354.67
2019-05-14T13:16:28.320Z,97354.15
2019-05-14T13:18:59.877Z,97354.95
2019-05-14T13:21:30.836Z,97359.48
2019-05-14T13:24:01.586Z,97351.03
2019-05-14T13:26:32.319Z,97355.73
2019-05-14T13:29:07.327Z,97344.03
2019-05-14T13:31:35.455Z,97335.73
2019-05-14T13:34:08.722Z,97323.27
2019-05-14T13:36:40.105Z,97320.92
2019-05-14T13:39:11.255Z,97318.84
2019-05-14T13:41:42.214Z,97323.90
2019-05-14T13:44:21.140Z,97306.66
2019-05-14T13:46:45.361Z,97316.73
2019-05-14T13:49:18.867Z,97305.47
2019-05-14T13:51:49.045Z,97304.20
2019-05-14T13:54:19.898Z,97302.13
2019-05-14T13:56:50.629Z,97310.18
2019-05-14T13:59:21.280Z,97313.63
2019-05-14T14:01:54.793Z,97326.80
2019-05-14T14:04:24.318Z,97314.17
2019-05-14T14:06:55.142Z,97316.94
2019-05-14T14:09:28.346Z,97308.70
2019-05-14T14:11:59.237Z,97311.92
2019-05-14T14:14:29.919Z,97313.19
2019-05-14T14:17:02.008Z,97322.08
2019-05-14T14:19:32.708Z,97314.53
2019-05-14T14:22:03.455Z,97314.30
2019-05-14T14:24:34.151Z,97329.16
2019-05-14T14:27:04.862Z,97325.56
2019-05-14T14:29:35.515Z,97328.12
2019-05-14T14:32:11.115Z,97332.97
2019-05-14T14:34:41.282Z,97334.06
2019-05-14T14:37:12.305Z,97320.67
2019-05-14T14:39:43.304Z,97322.48
2019-05-14T14:42:14.459Z,97315.12
2019-05-14T14:44:45.190Z,97314.38
2019-05-14T14:47:15.879Z,97317.58
2019-05-14T14:49:51.168Z,97307.27
2019-05-14T14:52:20.112Z,97307.58
2019-05-14T14:54:50.979Z,97304.45
2019-05-14T14:57:21.671Z,97298.73
2019-05-14T14:59:56.174Z,97292.31
2019-05-14T15:02:28.922Z,97297.69
2019-05-14T15:05:00.635Z,97284.55
2019-05-14T15:07:40.834Z,97277.17
2019-05-14T15:10:11.230Z,97295.45
2019-05-14T15:12:45.113Z,97290.56
2019-05-14T15:15:18.803Z,97295.02
2019-05-14T15:17:49.811Z,97307.02
2019-05-14T15:20:44.000Z,97323.15
2019-05-14T15:23:14.984Z,97324.97
2019-05-14T15:25:46.101Z,97338.57
2019-05-14T15:28:18.968Z,97345.16
2019-05-14T15:30:50.148Z,97329.17
2019-05-14T15:33:21.241Z,97326.63
2019-05-14T15:35:52.178Z,97325.59
2019-05-14T15:38:22.556Z,97332.02
2019-05-14T15:40:53.016Z,97316.69
2019-05-14T15:43:23.468Z,97322.69
2019-05-14T15:45:53.891Z,97325.52
2019-05-14T15:48:24.352Z,97311.70
2019-05-14T15:50:54.896Z,97311.00
2019-05-14T15:53:25.559Z,97311.60
2019-05-14T15:55:56.101Z,97312.54
2019-05-14T15:58:29.916Z,97301.34
2019-05-14T16:01:01.230Z,97299.77
2019-05-14T16:03:30.983Z,97284.96
2019-05-14T16:06:01.402Z,97280.80
2019-05-14T16:08:31.851Z,97275.30
2019-05-14T16:11:05.401Z,97267.25
2019-05-14T16:13:34.795Z,97260.69
2019-05-14T16:16:05.484Z,97264.42
2019-05-14T16:18:38.455Z,97267.89
2019-05-14T16:21:10.560Z,97256.81
2019-05-14T16:23:40.847Z,97258.27
2019-05-14T16:26:11.290Z,97254.41
2019-05-14T16:28:41.770Z,97256.16
2019-05-14T16:31:12.145Z,97261.18
2019-05-14T16:33:42.602Z,97254.98
2019-05-14T16:36:13.069Z,97255.19
2019-05-14T16:38:43.570Z,97257.99
2019-05-14T16:41:14.185Z,97265.31
2019-05-14T16:43:44.449Z,97265.09
2019-05-14T16:46:14.930Z,97268.64
2019-05-14T16:48:45.357Z,97268.33
2019-05-14T16:51:18.945Z,97277.22
2019-05-14T16:53:48.811Z,97271.86
2019-05-14T16:56:19.499Z,97278.22
2019-05-14T16:58:49.883Z,97267.09
2019-05-14T17:01:20.329Z,97279.99
2019-05-14T17:03:50.706Z,97266.69
2019-05-14T17:06:21.265Z,97263.14
2019-05-14T17:08:51.738Z,97263.41
2019-05-14T17:11:22.185Z,97261.75
2019-05-14T17:13:52.868Z,97256.89
2019-05-14T17:16:23.400Z,97265.85
2019-05-14T17:18:53.934Z,97257.45
2019-05-14T17:21:24.467Z,97263.08
2019-05-14T17:23:55.051Z,97262.08
2019-05-14T17:26:25.554Z,97266.09
2019-05-14T17:28:56.117Z,97258.65
2019-05-14T17:31:26.552Z,97263.00
2019-05-14T17:33:58.453Z,97261.70
2019-05-14T17:36:28.897Z,97263.50
2019-05-14T17:39:00.583Z,97263.27
2019-05-14T17:41:31.222Z,97261.38
2019-05-14T17:44:01.672Z,97269.00
2019-05-14T17:46:32.008Z,97270.68
2019-05-14T17:49:02.525Z,97269.70
2019-05-14T17:51:32.891Z,97269.23
2019-05-14T17:54:03.396Z,97271.40
2019-05-14T17:56:33.821Z,97275.64
2019-05-14T17:59:04.276Z,97273.52
2019-05-14T18:01:34.653Z,97272.23
2019-05-14T18:04:04.975Z,97269.44
2019-05-14T18:06:35.416Z,97274.97
2019-05-14T18:09:09.086Z,97278.23
2019-05-14T18:11:40.233Z,97284.45
2019-05-14T18:14:11.893Z,97289.38
2019-05-14T18:16:42.514Z,97299.84
2019-05-14T18:19:12.874Z,97299.81
2019-05-14T18:21:43.272Z,97309.34
2019-05-14T18:24:14.651Z,97307.06
2019-05-14T18:26:45.007Z,97305.70
2019-05-14T18:29:15.427Z,97305.70
2019-05-14T18:31:46.025Z,97301.89
2019-05-14T18:34:18.953Z,97299.23
2019-05-14T18:36:49.478Z,97303.34
2019-05-14T18:39:21.004Z,97294.30
2019-05-14T18:41:51.870Z,97298.18
2019-05-14T18:44:22.292Z,97300.64
2019-05-14T18:46:52.780Z,97298.80
2019-05-14T18:49:23.353Z,97305.20
2019-05-14T18:51:53.828Z,97302.11
2019-05-14T18:54:24.270Z,97309.76
2019-05-14T18:56:54.732Z,97308.73
2019-05-14T18:59:25.166Z,97303.74
2019-05-14T19:01:55.505Z,97303.74
2019-05-14T19:04:27.856Z,97295.39
2019-05-14T19:06:59.078Z,97300.78
2019-05-14T19:09:30.288Z,97302.02
2019-05-14T19:12:00.666Z,97306.02
2019-05-14T19:14:31.429Z,97311.88
2019-05-14T19:17:01.875Z,97313.80
2019-05-14T19:19:32.510Z,97313.80
2019-05-14T19:22:03.257Z,97315.71
2019-05-14T19:24:33.902Z,97314.74
2019-05-14T19:27:04.374Z,97309.79
2019-05-14T19:29:34.915Z,97316.45
2019-05-14T19:32:08.134Z,97316.24
2019-05-14T19:34:38.279Z,97322.71
2019-05-14T19:37:08.873Z,97312.39
2019-05-14T19:39:39.583Z,97304.06
2019-05-14T19:42:10.120Z,97304.73
2019-05-14T19:44:40.850Z,97302.20
2019-05-14T19:47:11.685Z,97301.07
2019-05-14T19:49:42.304Z,97293.52
2019-05-14T19:52:13.346Z,97293.84
2019-05-14T19:54:43.866Z,97303.97
2019-05-14T19:57:14.333Z,97298.06
2019-05-14T19:59:45.040Z,97294.66
2019-05-14T20:02:18.378Z,97295.41
2019-05-14T20:04:49.292Z,97298.55
2019-05-14T20:07:19.915Z,97299.51
2019-05-14T20:09:50.730Z,97298.80
2019-05-14T20:12:21.921Z,97301.37
2019-05-14T20:14:52.468Z,97293.67
2019-05-14T20:17:23.190Z,97292.98
2019-05-14T20:19:53.756Z,97293.73
2019-05-14T20:22:24.249Z,97295.28
2019-05-14T20:24:55.517Z,97296.28
2019-05-14T20:27:28.305Z,97283.50
2019-05-14T20:29:59.644Z,97295.73
2019-05-14T20:32:30.270Z,97300.98
2019-05-14T20:35:00.782Z,97301.07
2019-05-14T20:37:33.778Z,97299.36
2019-05-14T20:40:04.268Z,97295.58
2019-05-14T20:42:39.155Z,97295.28
2019-05-14T20:45:09.695Z,97304.48
2019-05-14T20:47:40.190Z,97297.62
2019-05-14T20:50:11.107Z,97301.39
2019-05-14T20:52:42.785Z,97291.12
2019-05-14T20:55:13.393Z,97289.34
2019-05-14T20:57:43.986Z,97293.36
2019-05-14T21:00:18.100Z,97286.66
2019-05-14T21:02:48.024Z,97289.41
2019-05-14T21:05:18.852Z,97283.08
2019-05-14T21:07:49.477Z,97285.59
2019-05-14T21:10:20.098Z,97288.62
2019-05-14T21:12:50.702Z,97282.30
2019-05-14T21:15:22.512Z,97285.43
2019-05-14T21:17:53.080Z,97284.67
2019-05-14T21:20:24.093Z,97285.02
2019-05-14T21:22:54.997Z,97282.98
2019-05-14T21:25:25.485Z,97279.69
2019-05-14T21:27:58.480Z,97276.98
2019-05-14T21:30:29.518Z,97282.84
2019-05-14T21:33:00.673Z,97274.37
2019-05-14T21:35:31.361Z,97279.66
2019-05-14T21:38:01.922Z,97281.23
2019-05-14T21:40:32.393Z,97276.26
2019-05-14T21:43:02.969Z,97277.66
2019-05-14T21:45:33.619Z,97271.48
2019-05-14T21:48:04.153Z,97271.54
2019-05-14T21:50:34.741Z,97270.81
2019-05-14T21:53:05.328Z,97266.20
2019-05-14T21:55:38.566Z,97262.80
2019-05-14T21:58:09.163Z,97264.77
2019-05-14T22:00:44.603Z,97259.20
2019-05-14T22:03:15.194Z,97258.58
2019-05-14T22:05:45.751Z,97265.13
2019-05-14T22:08:16.169Z,97267.44
2019-05-14T22:10:48.803Z,97264.11
2019-05-14T22:13:19.032Z,97265.08
2019-05-14T22:15:49.537Z,97259.45
2019-05-14T22:18:20.830Z,97254.91
2019-05-14T22:20:51.539Z,97250.03
2019-05-14T22:23:22.189Z,97253.92
2019-05-14T22:25:52.693Z,97254.54
2019-05-14T22:28:23.207Z,97254.20
2019-05-14T22:30:53.766Z,97254.45
2019-05-14T22:33:24.312Z,97251.55
2019-05-14T22:35:54.950Z,97241.11
2019-05-14T22:38:25.518Z,97247.98
2019-05-14T22:40:56.090Z,97238.44
2019-05-14T22:43:28.836Z,97241.36
2019-05-14T22:45:59.321Z,97235.77
2019-05-14T22:48:29.901Z,97236.08
2019-05-14T22:51:01.206Z,97234.98
2019-05-14T22:53:31.741Z,97236.48
2019-05-14T22:56:02.294Z,97238.13
2019-05-14T22:58:32.789Z,97231.61
2019-05-14T23:01:14.426Z,97235.58
2019-05-14T23:03:35.754Z,97233.17
2019-05-14T23:06:06.278Z,97231.05
2019-05-14T23:08:38.936Z,97226.41
2019-05-14T23:11:09.059Z,97227.37
2019-05-14T23:13:39.633Z,97217.45
2019-05-14T23:16:10.511Z,97224.48
2019-05-14T23:18:41.057Z,97224.18
2019-05-14T23:21:11.619Z,97218.92
2019-05-14T23:23:42.215Z,97220.23
2019-05-14T23:26:12.778Z,97212.41
2019-05-14T23:28:45.816Z,97209.25
2019-05-14T23:31:16.706Z,97221.34
2019-05-14T23:33:49.036Z,97215.30
2019-05-14T23:36:19.639Z,97215.16
2019-05-14T23:38:50.760Z,97211.69
2019-05-14T23:41:21.355Z,97215.16
2019-05-14T23:43:51.902Z,97210.44
2019-05-14T23:46:22.412Z,97218.67
2019-05-14T23:48:53.940Z,97206.95
2019-05-14T23:51:24.493Z,97205.98
2019-05-14T23:53:55.025Z,97199.62
2019-05-14T23:56:25.567Z,97201.95
2019-05-14T23:59:01.383Z,97197.89
